Terminal Aerodrome Forecast
Issued by NWS

Home | Current Version | Previous Version | Graphics & Text | Print | Product List | Glossary On
Versions: 1 2 3 4 5 6 7 8 9 10 11 12 13 14 15 16 17 18
000
FTUS43 KICT 212333
TAFCNU
TAF
KCNU 212333Z 2200/2224 13007KT 4SM -DZ SCT009 OVC015
     FM220300 17005KT 2SM BR SCT006 OVC009
     FM221500 17013KT 6SM BR OVC010=

USA.gov is the U.S. government's official web portal to all federal, state and local government web resources and services.